sensor_id;sensor_type;location;lat;lon;timestamp;P1;durP1;ratioP1;P2;durP2;ratioP2
61785;SDS011;47692;53.714;11.372;2023-05-20T00:01:21;1.73;;;1.02;;
61785;SDS011;47692;53.714;11.372;2023-05-20T00:03:46;3.92;;;1.25;;
61785;SDS011;47692;53.714;11.372;2023-05-20T00:06:12;2.53;;;1.30;;
61785;SDS011;47692;53.714;11.372;2023-05-20T00:08:37;2.03;;;1.02;;
61785;SDS011;47692;53.714;11.372;2023-05-20T00:11:02;3.03;;;1.30;;
61785;SDS011;47692;53.714;11.372;2023-05-20T00:13:28;1.95;;;1.05;;
61785;SDS011;47692;53.714;11.372;2023-05-20T00:15:53;1.98;;;0.82;;
61785;SDS011;47692;53.714;11.372;2023-05-20T00:18:18;1.17;;;0.77;;
61785;SDS011;47692;53.714;11.372;2023-05-20T00:20:43;3.65;;;0.85;;
61785;SDS011;47692;53.714;11.372;2023-05-20T00:23:09;1.42;;;0.82;;
61785;SDS011;47692;53.714;11.372;2023-05-20T00:25:34;3.45;;;0.80;;
61785;SDS011;47692;53.714;11.372;2023-05-20T00:28:00;1.20;;;0.60;;
61785;SDS011;47692;53.714;11.372;2023-05-20T00:30:25;2.28;;;0.68;;
61785;SDS011;47692;53.714;11.372;2023-05-20T00:32:50;1.10;;;0.60;;
61785;SDS011;47692;53.714;11.372;2023-05-20T00:35:16;0.63;;;0.45;;
61785;SDS011;47692;53.714;11.372;2023-05-20T00:37:41;1.40;;;0.70;;
61785;SDS011;47692;53.714;11.372;2023-05-20T00:40:07;1.77;;;1.00;;
61785;SDS011;47692;53.714;11.372;2023-05-20T00:42:33;1.50;;;0.90;;
61785;SDS011;47692;53.714;11.372;2023-05-20T00:44:58;2.40;;;1.10;;
61785;SDS011;47692;53.714;11.372;2023-05-20T00:47:31;2.13;;;0.95;;
61785;SDS011;47692;53.714;11.372;2023-05-20T00:49:58;1.70;;;0.90;;
61785;SDS011;47692;53.714;11.372;2023-05-20T00:52:24;1.92;;;1.02;;
61785;SDS011;47692;53.714;11.372;2023-05-20T00:54:51;3.70;;;1.00;;
61785;SDS011;47692;53.714;11.372;2023-05-20T00:57:16;3.53;;;1.35;;
61785;SDS011;47692;53.714;11.372;2023-05-20T00:59:43;1.42;;;0.90;;
61785;SDS011;47692;53.714;11.372;2023-05-20T01:02:09;1.17;;;0.63;;
61785;SDS011;47692;53.714;11.372;2023-05-20T01:04:34;1.35;;;0.85;;
61785;SDS011;47692;53.714;11.372;2023-05-20T01:07:01;1.58;;;0.88;;
61785;SDS011;47692;53.714;11.372;2023-05-20T01:09:29;1.35;;;0.95;;
61785;SDS011;47692;53.714;11.372;2023-05-20T01:12:02;1.27;;;0.80;;
61785;SDS011;47692;53.714;11.372;2023-05-20T01:14:35;2.70;;;1.00;;
61785;SDS011;47692;53.714;11.372;2023-05-20T01:17:05;1.83;;;0.63;;
61785;SDS011;47692;53.714;11.372;2023-05-20T01:19:39;1.48;;;0.60;;
61785;SDS011;47692;53.714;11.372;2023-05-20T01:22:08;2.08;;;0.80;;
61785;SDS011;47692;53.714;11.372;2023-05-20T01:24:36;2.15;;;0.90;;
61785;SDS011;47692;53.714;11.372;2023-05-20T01:27:09;1.38;;;0.73;;
61785;SDS011;47692;53.714;11.372;2023-05-20T01:29:37;2.83;;;0.80;;
61785;SDS011;47692;53.714;11.372;2023-05-20T01:32:08;1.83;;;0.60;;
61785;SDS011;47692;53.714;11.372;2023-05-20T01:34:36;1.48;;;0.80;;
61785;SDS011;47692;53.714;11.372;2023-05-20T01:37:03;2.25;;;0.60;;
61785;SDS011;47692;53.714;11.372;2023-05-20T01:39:29;1.77;;;0.82;;
61785;SDS011;47692;53.714;11.372;2023-05-20T01:41:58;1.13;;;0.65;;
61785;SDS011;47692;53.714;11.372;2023-05-20T01:44:26;1.73;;;0.88;;
61785;SDS011;47692;53.714;11.372;2023-05-20T01:46:51;2.88;;;1.00;;
61785;SDS011;47692;53.714;11.372;2023-05-20T01:49:18;1.92;;;0.90;;
61785;SDS011;47692;53.714;11.372;2023-05-20T01:51:43;1.92;;;0.82;;
61785;SDS011;47692;53.714;11.372;2023-05-20T01:54:08;2.03;;;0.90;;
61785;SDS011;47692;53.714;11.372;2023-05-20T01:56:34;1.70;;;1.08;;
61785;SDS011;47692;53.714;11.372;2023-05-20T01:58:59;1.95;;;1.15;;
61785;SDS011;47692;53.714;11.372;2023-05-20T02:01:24;2.90;;;1.10;;
61785;SDS011;47692;53.714;11.372;2023-05-20T02:03:50;1.63;;;0.70;;
61785;SDS011;47692;53.714;11.372;2023-05-20T02:06:15;3.55;;;1.02;;
61785;SDS011;47692;53.714;11.372;2023-05-20T02:08:40;1.65;;;1.27;;
61785;SDS011;47692;53.714;11.372;2023-05-20T02:11:06;1.25;;;0.70;;
61785;SDS011;47692;53.714;11.372;2023-05-20T02:13:31;2.67;;;0.75;;
61785;SDS011;47692;53.714;11.372;2023-05-20T02:15:57;3.15;;;1.15;;
61785;SDS011;47692;53.714;11.372;2023-05-20T02:18:22;1.52;;;0.90;;
61785;SDS011;47692;53.714;11.372;2023-05-20T02:20:50;5.97;;;1.33;;
61785;SDS011;47692;53.714;11.372;2023-05-20T02:23:16;1.55;;;1.10;;
61785;SDS011;47692;53.714;11.372;2023-05-20T02:25:42;2.10;;;0.80;;
61785;SDS011;47692;53.714;11.372;2023-05-20T02:28:07;2.85;;;1.20;;
61785;SDS011;47692;53.714;11.372;2023-05-20T02:30:35;3.08;;;1.33;;
61785;SDS011;47692;53.714;11.372;2023-05-20T02:33:01;2.55;;;1.10;;
61785;SDS011;47692;53.714;11.372;2023-05-20T02:35:27;2.10;;;1.15;;
61785;SDS011;47692;53.714;11.372;2023-05-20T02:37:52;2.13;;;1.05;;
61785;SDS011;47692;53.714;11.372;2023-05-20T02:40:17;3.28;;;1.10;;
61785;SDS011;47692;53.714;11.372;2023-05-20T02:42:43;2.25;;;1.10;;
61785;SDS011;47692;53.714;11.372;2023-05-20T02:45:08;2.30;;;1.10;;
61785;SDS011;47692;53.714;11.372;2023-05-20T02:47:34;2.95;;;1.20;;
61785;SDS011;47692;53.714;11.372;2023-05-20T02:49:59;3.60;;;1.23;;
61785;SDS011;47692;53.714;11.372;2023-05-20T02:52:24;2.38;;;1.08;;
61785;SDS011;47692;53.714;11.372;2023-05-20T02:54:50;2.20;;;1.40;;
61785;SDS011;47692;53.714;11.372;2023-05-20T02:57:16;2.67;;;1.00;;
61785;SDS011;47692;53.714;11.372;2023-05-20T02:59:42;1.73;;;1.00;;
61785;SDS011;47692;53.714;11.372;2023-05-20T03:02:07;2.05;;;1.00;;
61785;SDS011;47692;53.714;11.372;2023-05-20T03:04:32;2.95;;;1.00;;
61785;SDS011;47692;53.714;11.372;2023-05-20T03:07:02;2.17;;;1.40;;
61785;SDS011;47692;53.714;11.372;2023-05-20T03:09:27;2.90;;;1.50;;
61785;SDS011;47692;53.714;11.372;2023-05-20T03:11:52;3.10;;;1.73;;
61785;SDS011;47692;53.714;11.372;2023-05-20T03:14:18;4.38;;;1.55;;
61785;SDS011;47692;53.714;11.372;2023-05-20T03:16:43;4.22;;;1.17;;
61785;SDS011;47692;53.714;11.372;2023-05-20T03:19:09;3.97;;;1.50;;
61785;SDS011;47692;53.714;11.372;2023-05-20T03:21:34;2.92;;;1.45;;
61785;SDS011;47692;53.714;11.372;2023-05-20T03:24:00;3.08;;;1.23;;
61785;SDS011;47692;53.714;11.372;2023-05-20T03:26:25;2.45;;;1.35;;
61785;SDS011;47692;53.714;11.372;2023-05-20T03:28:50;1.95;;;1.08;;
61785;SDS011;47692;53.714;11.372;2023-05-20T03:31:16;2.28;;;1.05;;
61785;SDS011;47692;53.714;11.372;2023-05-20T03:33:41;1.92;;;1.10;;
61785;SDS011;47692;53.714;11.372;2023-05-20T03:36:07;1.40;;;0.90;;
61785;SDS011;47692;53.714;11.372;2023-05-20T03:38:32;3.42;;;1.30;;
61785;SDS011;47692;53.714;11.372;2023-05-20T03:40:57;3.25;;;1.10;;
61785;SDS011;47692;53.714;11.372;2023-05-20T03:43:22;2.63;;;1.10;;
61785;SDS011;47692;53.714;11.372;2023-05-20T03:45:49;3.97;;;1.77;;
61785;SDS011;47692;53.714;11.372;2023-05-20T03:48:14;3.35;;;1.00;;
61785;SDS011;47692;53.714;11.372;2023-05-20T03:50:39;4.60;;;1.20;;
61785;SDS011;47692;53.714;11.372;2023-05-20T03:53:05;2.00;;;1.00;;
61785;SDS011;47692;53.714;11.372;2023-05-20T03:55:30;4.63;;;1.50;;
61785;SDS011;47692;53.714;11.372;2023-05-20T03:57:56;4.80;;;1.33;;
61785;SDS011;47692;53.714;11.372;2023-05-20T04:00:21;4.00;;;1.00;;
61785;SDS011;47692;53.714;11.372;2023-05-20T04:02:46;1.88;;;1.17;;
61785;SDS011;47692;53.714;11.372;2023-05-20T04:05:12;5.35;;;1.20;;
61785;SDS011;47692;53.714;11.372;2023-05-20T04:07:37;3.88;;;1.27;;
61785;SDS011;47692;53.714;11.372;2023-05-20T04:10:03;2.00;;;1.00;;
61785;SDS011;47692;53.714;11.372;2023-05-20T04:12:29;2.55;;;1.20;;
61785;SDS011;47692;53.714;11.372;2023-05-20T04:14:59;2.70;;;1.38;;
61785;SDS011;47692;53.714;11.372;2023-05-20T04:17:25;2.63;;;1.20;;
61785;SDS011;47692;53.714;11.372;2023-05-20T04:19:55;3.70;;;1.40;;
61785;SDS011;47692;53.714;11.372;2023-05-20T04:22:21;3.10;;;1.30;;
61785;SDS011;47692;53.714;11.372;2023-05-20T04:24:47;1.83;;;1.10;;
61785;SDS011;47692;53.714;11.372;2023-05-20T04:27:12;3.65;;;1.30;;
61785;SDS011;47692;53.714;11.372;2023-05-20T04:29:38;4.22;;;1.05;;
61785;SDS011;47692;53.714;11.372;2023-05-20T04:32:05;2.55;;;1.00;;
61785;SDS011;47692;53.714;11.372;2023-05-20T04:34:31;4.47;;;1.30;;
61785;SDS011;47692;53.714;11.372;2023-05-20T04:36:59;3.20;;;1.30;;
61785;SDS011;47692;53.714;11.372;2023-05-20T04:39:25;4.82;;;1.48;;
61785;SDS011;47692;53.714;11.372;2023-05-20T04:41:51;2.33;;;1.08;;
61785;SDS011;47692;53.714;11.372;2023-05-20T04:44:18;2.28;;;1.10;;
61785;SDS011;47692;53.714;11.372;2023-05-20T04:46:44;3.15;;;1.27;;
61785;SDS011;47692;53.714;11.372;2023-05-20T04:49:10;4.32;;;1.20;;
61785;SDS011;47692;53.714;11.372;2023-05-20T04:51:35;3.25;;;1.30;;
61785;SDS011;47692;53.714;11.372;2023-05-20T04:54:01;2.75;;;1.13;;
61785;SDS011;47692;53.714;11.372;2023-05-20T04:56:26;3.17;;;1.20;;
61785;SDS011;47692;53.714;11.372;2023-05-20T04:58:51;2.47;;;1.45;;
61785;SDS011;47692;53.714;11.372;2023-05-20T05:01:17;4.50;;;1.40;;
61785;SDS011;47692;53.714;11.372;2023-05-20T05:03:42;5.13;;;1.20;;
61785;SDS011;47692;53.714;11.372;2023-05-20T05:06:08;3.88;;;1.40;;
61785;SDS011;47692;53.714;11.372;2023-05-20T05:08:33;5.35;;;1.70;;
61785;SDS011;47692;53.714;11.372;2023-05-20T05:10:58;2.78;;;1.40;;
61785;SDS011;47692;53.714;11.372;2023-05-20T05:13:23;1.90;;;1.30;;
61785;SDS011;47692;53.714;11.372;2023-05-20T05:15:56;4.18;;;1.60;;
61785;SDS011;47692;53.714;11.372;2023-05-20T05:18:25;2.00;;;1.20;;
61785;SDS011;47692;53.714;11.372;2023-05-20T05:20:57;3.47;;;1.35;;
61785;SDS011;47692;53.714;11.372;2023-05-20T05:23:29;4.75;;;1.70;;
61785;SDS011;47692;53.714;11.372;2023-05-20T05:25:55;4.60;;;1.60;;
61785;SDS011;47692;53.714;11.372;2023-05-20T05:28:21;6.45;;;1.52;;
61785;SDS011;47692;53.714;11.372;2023-05-20T05:30:46;5.93;;;1.90;;
61785;SDS011;47692;53.714;11.372;2023-05-20T05:33:13;4.47;;;1.60;;
61785;SDS011;47692;53.714;11.372;2023-05-20T05:35:39;5.93;;;1.67;;
61785;SDS011;47692;53.714;11.372;2023-05-20T05:38:05;4.82;;;1.85;;
61785;SDS011;47692;53.714;11.372;2023-05-20T05:40:30;5.90;;;1.92;;
61785;SDS011;47692;53.714;11.372;2023-05-20T05:42:56;6.28;;;1.60;;
61785;SDS011;47692;53.714;11.372;2023-05-20T05:45:21;6.53;;;1.90;;
61785;SDS011;47692;53.714;11.372;2023-05-20T05:47:46;3.78;;;1.88;;
61785;SDS011;47692;53.714;11.372;2023-05-20T05:50:12;3.50;;;1.70;;
61785;SDS011;47692;53.714;11.372;2023-05-20T05:52:37;4.55;;;2.35;;
61785;SDS011;47692;53.714;11.372;2023-05-20T05:55:02;5.65;;;2.13;;
61785;SDS011;47692;53.714;11.372;2023-05-20T05:57:28;5.18;;;2.10;;
61785;SDS011;47692;53.714;11.372;2023-05-20T05:59:53;3.97;;;1.70;;
61785;SDS011;47692;53.714;11.372;2023-05-20T06:02:18;4.60;;;1.80;;
61785;SDS011;47692;53.714;11.372;2023-05-20T06:04:44;6.13;;;3.30;;
61785;SDS011;47692;53.714;11.372;2023-05-20T06:07:09;3.72;;;1.88;;
61785;SDS011;47692;53.714;11.372;2023-05-20T06:09:35;4.22;;;1.77;;
61785;SDS011;47692;53.714;11.372;2023-05-20T06:12:00;3.88;;;1.77;;
61785;SDS011;47692;53.714;11.372;2023-05-20T06:14:26;6.05;;;2.00;;
61785;SDS011;47692;53.714;11.372;2023-05-20T06:16:51;4.82;;;2.08;;
61785;SDS011;47692;53.714;11.372;2023-05-20T06:19:17;6.25;;;1.65;;
61785;SDS011;47692;53.714;11.372;2023-05-20T06:21:42;5.50;;;2.10;;
61785;SDS011;47692;53.714;11.372;2023-05-20T06:24:07;5.28;;;1.95;;
61785;SDS011;47692;53.714;11.372;2023-05-20T06:26:33;3.92;;;1.95;;
61785;SDS011;47692;53.714;11.372;2023-05-20T06:28:58;4.82;;;1.88;;
61785;SDS011;47692;53.714;11.372;2023-05-20T06:31:23;4.28;;;2.03;;
61785;SDS011;47692;53.714;11.372;2023-05-20T06:33:49;4.38;;;1.88;;
61785;SDS011;47692;53.714;11.372;2023-05-20T06:36:15;6.43;;;2.20;;
61785;SDS011;47692;53.714;11.372;2023-05-20T06:38:41;4.82;;;2.22;;
61785;SDS011;47692;53.714;11.372;2023-05-20T06:41:06;4.15;;;2.00;;
61785;SDS011;47692;53.714;11.372;2023-05-20T06:43:32;5.13;;;1.98;;
61785;SDS011;47692;53.714;11.372;2023-05-20T06:45:58;4.03;;;1.73;;
61785;SDS011;47692;53.714;11.372;2023-05-20T06:48:23;5.78;;;1.95;;
61785;SDS011;47692;53.714;11.372;2023-05-20T06:50:48;5.00;;;1.83;;
61785;SDS011;47692;53.714;11.372;2023-05-20T06:53:14;4.05;;;1.90;;
61785;SDS011;47692;53.714;11.372;2023-05-20T06:55:39;4.00;;;2.30;;
61785;SDS011;47692;53.714;11.372;2023-05-20T06:58:04;4.82;;;2.65;;
61785;SDS011;47692;53.714;11.372;2023-05-20T07:00:30;5.90;;;1.90;;
61785;SDS011;47692;53.714;11.372;2023-05-20T07:02:55;7.15;;;2.10;;
61785;SDS011;47692;53.714;11.372;2023-05-20T07:05:20;5.43;;;1.92;;
61785;SDS011;47692;53.714;11.372;2023-05-20T07:07:46;3.28;;;1.98;;
61785;SDS011;47692;53.714;11.372;2023-05-20T07:10:11;4.65;;;2.28;;
61785;SDS011;47692;53.714;11.372;2023-05-20T07:12:37;3.95;;;2.15;;
61785;SDS011;47692;53.714;11.372;2023-05-20T07:15:02;5.97;;;2.10;;
61785;SDS011;47692;53.714;11.372;2023-05-20T07:17:27;5.28;;;1.92;;
61785;SDS011;47692;53.714;11.372;2023-05-20T07:19:53;6.18;;;2.40;;
61785;SDS011;47692;53.714;11.372;2023-05-20T07:22:20;3.80;;;2.03;;
61785;SDS011;47692;53.714;11.372;2023-05-20T07:24:45;4.32;;;2.10;;
61785;SDS011;47692;53.714;11.372;2023-05-20T07:27:10;4.75;;;2.08;;
61785;SDS011;47692;53.714;11.372;2023-05-20T07:29:36;5.03;;;1.90;;
61785;SDS011;47692;53.714;11.372;2023-05-20T07:32:02;4.95;;;1.80;;
61785;SDS011;47692;53.714;11.372;2023-05-20T07:34:29;5.50;;;2.10;;
61785;SDS011;47692;53.714;11.372;2023-05-20T07:36:54;3.33;;;1.70;;
61785;SDS011;47692;53.714;11.372;2023-05-20T07:39:20;4.60;;;1.48;;
61785;SDS011;47692;53.714;11.372;2023-05-20T07:41:46;5.03;;;1.75;;
61785;SDS011;47692;53.714;11.372;2023-05-20T07:44:11;7.78;;;2.20;;
61785;SDS011;47692;53.714;11.372;2023-05-20T07:46:37;5.78;;;1.90;;
61785;SDS011;47692;53.714;11.372;2023-05-20T07:49:03;5.80;;;1.88;;
61785;SDS011;47692;53.714;11.372;2023-05-20T07:51:28;3.45;;;1.55;;
61785;SDS011;47692;53.714;11.372;2023-05-20T07:53:55;6.97;;;2.08;;
61785;SDS011;47692;53.714;11.372;2023-05-20T07:56:20;3.08;;;1.52;;
61785;SDS011;47692;53.714;11.372;2023-05-20T07:58:56;6.43;;;2.03;;
61785;SDS011;47692;53.714;11.372;2023-05-20T08:01:25;5.18;;;1.88;;
61785;SDS011;47692;53.714;11.372;2023-05-20T08:03:51;5.78;;;1.60;;
61785;SDS011;47692;53.714;11.372;2023-05-20T08:06:17;4.10;;;1.90;;
61785;SDS011;47692;53.714;11.372;2023-05-20T08:08:44;5.30;;;2.15;;
61785;SDS011;47692;53.714;11.372;2023-05-20T08:11:10;4.13;;;2.00;;
61785;SDS011;47692;53.714;11.372;2023-05-20T08:13:36;4.97;;;1.70;;
61785;SDS011;47692;53.714;11.372;2023-05-20T08:16:01;4.97;;;1.85;;
61785;SDS011;47692;53.714;11.372;2023-05-20T08:18:30;3.88;;;2.20;;
61785;SDS011;47692;53.714;11.372;2023-05-20T08:20:56;3.50;;;1.77;;
61785;SDS011;47692;53.714;11.372;2023-05-20T08:23:22;5.47;;;1.85;;
61785;SDS011;47692;53.714;11.372;2023-05-20T08:25:48;3.17;;;1.48;;
61785;SDS011;47692;53.714;11.372;2023-05-20T08:28:13;3.60;;;1.52;;
61785;SDS011;47692;53.714;11.372;2023-05-20T08:30:39;5.05;;;1.73;;
61785;SDS011;47692;53.714;11.372;2023-05-20T08:33:05;5.85;;;1.80;;
61785;SDS011;47692;53.714;11.372;2023-05-20T08:35:30;4.65;;;1.92;;
61785;SDS011;47692;53.714;11.372;2023-05-20T08:37:56;4.82;;;1.70;;
61785;SDS011;47692;53.714;11.372;2023-05-20T08:40:21;4.32;;;2.05;;
61785;SDS011;47692;53.714;11.372;2023-05-20T08:42:47;2.85;;;1.85;;
61785;SDS011;47692;53.714;11.372;2023-05-20T08:45:14;4.38;;;1.80;;
61785;SDS011;47692;53.714;11.372;2023-05-20T08:47:42;4.20;;;1.65;;
61785;SDS011;47692;53.714;11.372;2023-05-20T08:50:08;4.78;;;1.75;;
61785;SDS011;47692;53.714;11.372;2023-05-20T08:52:36;2.88;;;1.50;;
61785;SDS011;47692;53.714;11.372;2023-05-20T08:55:06;4.30;;;1.25;;
61785;SDS011;47692;53.714;11.372;2023-05-20T08:57:33;7.03;;;2.13;;
61785;SDS011;47692;53.714;11.372;2023-05-20T09:00:00;6.00;;;1.80;;
61785;SDS011;47692;53.714;11.372;2023-05-20T09:02:35;4.75;;;1.90;;
61785;SDS011;47692;53.714;11.372;2023-05-20T09:05:01;3.15;;;1.40;;
61785;SDS011;47692;53.714;11.372;2023-05-20T09:07:28;5.43;;;1.83;;
61785;SDS011;47692;53.714;11.372;2023-05-20T09:09:54;3.95;;;2.03;;
61785;SDS011;47692;53.714;11.372;2023-05-20T09:12:19;3.13;;;1.48;;
61785;SDS011;47692;53.714;11.372;2023-05-20T09:14:45;3.13;;;1.80;;
61785;SDS011;47692;53.714;11.372;2023-05-20T09:17:11;5.05;;;1.50;;
61785;SDS011;47692;53.714;11.372;2023-05-20T09:19:37;5.05;;;1.50;;
61785;SDS011;47692;53.714;11.372;2023-05-20T09:22:02;3.00;;;1.80;;
61785;SDS011;47692;53.714;11.372;2023-05-20T09:24:29;3.75;;;1.40;;
61785;SDS011;47692;53.714;11.372;2023-05-20T09:26:54;4.18;;;2.47;;
61785;SDS011;47692;53.714;11.372;2023-05-20T09:29:20;3.20;;;1.38;;
61785;SDS011;47692;53.714;11.372;2023-05-20T09:31:45;3.00;;;1.50;;
61785;SDS011;47692;53.714;11.372;2023-05-20T09:34:11;3.00;;;1.40;;
61785;SDS011;47692;53.714;11.372;2023-05-20T09:36:37;4.75;;;1.77;;
61785;SDS011;47692;53.714;11.372;2023-05-20T09:39:04;2.08;;;1.27;;
61785;SDS011;47692;53.714;11.372;2023-05-20T09:41:47;4.57;;;1.77;;
61785;SDS011;47692;53.714;11.372;2023-05-20T09:44:16;3.92;;;1.90;;
61785;SDS011;47692;53.714;11.372;2023-05-20T09:46:43;2.53;;;1.30;;
61785;SDS011;47692;53.714;11.372;2023-05-20T09:49:10;2.80;;;1.52;;
61785;SDS011;47692;53.714;11.372;2023-05-20T09:51:38;4.78;;;1.60;;
61785;SDS011;47692;53.714;11.372;2023-05-20T09:54:05;3.72;;;1.30;;
61785;SDS011;47692;53.714;11.372;2023-05-20T09:56:33;2.83;;;1.52;;
61785;SDS011;47692;53.714;11.372;2023-05-20T09:58:59;3.65;;;1.48;;
61785;SDS011;47692;53.714;11.372;2023-05-20T10:01:26;3.17;;;1.42;;
61785;SDS011;47692;53.714;11.372;2023-05-20T10:03:51;3.00;;;1.50;;
61785;SDS011;47692;53.714;11.372;2023-05-20T10:15:09;3.63;;;1.25;;
61785;SDS011;47692;53.714;11.372;2023-05-20T10:20:17;2.25;;;1.33;;
61785;SDS011;47692;53.714;11.372;2023-05-20T10:22:43;2.00;;;1.17;;
61785;SDS011;47692;53.714;11.372;2023-05-20T10:25:27;2.08;;;1.30;;
61785;SDS011;47692;53.714;11.372;2023-05-20T10:28:03;3.33;;;1.20;;
61785;SDS011;47692;53.714;11.372;2023-05-20T10:30:31;2.35;;;1.23;;
61785;SDS011;47692;53.714;11.372;2023-05-20T10:33:01;1.73;;;1.20;;
61785;SDS011;47692;53.714;11.372;2023-05-20T10:35:28;3.00;;;1.30;;
61785;SDS011;47692;53.714;11.372;2023-05-20T10:37:54;2.33;;;1.35;;
61785;SDS011;47692;53.714;11.372;2023-05-20T10:40:39;4.13;;;1.30;;
61785;SDS011;47692;53.714;11.372;2023-05-20T10:43:09;1.70;;;1.27;;
61785;SDS011;47692;53.714;11.372;2023-05-20T10:45:35;6.60;;;2.20;;
61785;SDS011;47692;53.714;11.372;2023-05-20T10:48:18;3.35;;;1.52;;
61785;SDS011;47692;53.714;11.372;2023-05-20T10:50:45;2.38;;;1.42;;
61785;SDS011;47692;53.714;11.372;2023-05-20T10:53:11;3.10;;;1.58;;
61785;SDS011;47692;53.714;11.372;2023-05-20T10:55:38;2.25;;;1.63;;
61785;SDS011;47692;53.714;11.372;2023-05-20T10:58:04;2.88;;;1.45;;
61785;SDS011;47692;53.714;11.372;2023-05-20T11:00:31;5.65;;;1.40;;
61785;SDS011;47692;53.714;11.372;2023-05-20T11:02:58;4.38;;;1.85;;
61785;SDS011;47692;53.714;11.372;2023-05-20T11:05:25;2.20;;;1.17;;
61785;SDS011;47692;53.714;11.372;2023-05-20T11:07:59;2.70;;;1.35;;
61785;SDS011;47692;53.714;11.372;2023-05-20T11:10:28;3.13;;;1.50;;
61785;SDS011;47692;53.714;11.372;2023-05-20T11:12:55;1.65;;;1.27;;
61785;SDS011;47692;53.714;11.372;2023-05-20T11:15:21;3.25;;;1.33;;
61785;SDS011;47692;53.714;11.372;2023-05-20T11:17:55;3.00;;;1.50;;
61785;SDS011;47692;53.714;11.372;2023-05-20T11:20:25;3.13;;;1.50;;
61785;SDS011;47692;53.714;11.372;2023-05-20T11:22:51;2.45;;;1.30;;
61785;SDS011;47692;53.714;11.372;2023-05-20T11:25:18;2.75;;;1.30;;
61785;SDS011;47692;53.714;11.372;2023-05-20T11:27:43;3.67;;;1.30;;
61785;SDS011;47692;53.714;11.372;2023-05-20T11:30:10;2.20;;;1.30;;
61785;SDS011;47692;53.714;11.372;2023-05-20T11:32:37;2.53;;;1.42;;
61785;SDS011;47692;53.714;11.372;2023-05-20T11:35:02;2.60;;;1.33;;
61785;SDS011;47692;53.714;11.372;2023-05-20T11:37:28;3.50;;;1.30;;
61785;SDS011;47692;53.714;11.372;2023-05-20T11:40:06;3.25;;;1.40;;
61785;SDS011;47692;53.714;11.372;2023-05-20T11:42:33;4.10;;;1.40;;
61785;SDS011;47692;53.714;11.372;2023-05-20T11:44:59;3.15;;;1.70;;
61785;SDS011;47692;53.714;11.372;2023-05-20T11:47:25;2.65;;;1.50;;
61785;SDS011;47692;53.714;11.372;2023-05-20T11:49:55;2.50;;;1.30;;
61785;SDS011;47692;53.714;11.372;2023-05-20T11:52:20;2.30;;;1.60;;
61785;SDS011;47692;53.714;11.372;2023-05-20T11:54:54;3.42;;;1.65;;
61785;SDS011;47692;53.714;11.372;2023-05-20T11:57:20;3.75;;;1.48;;
61785;SDS011;47692;53.714;11.372;2023-05-20T11:59:47;2.67;;;1.50;;
61785;SDS011;47692;53.714;11.372;2023-05-20T12:02:13;1.92;;;1.17;;
61785;SDS011;47692;53.714;11.372;2023-05-20T12:04:38;3.30;;;1.20;;
61785;SDS011;47692;53.714;11.372;2023-05-20T12:07:03;3.08;;;1.30;;
61785;SDS011;47692;53.714;11.372;2023-05-20T12:09:33;2.78;;;1.10;;
61785;SDS011;47692;53.714;11.372;2023-05-20T12:11:58;3.10;;;1.58;;
61785;SDS011;47692;53.714;11.372;2023-05-20T12:14:23;2.05;;;1.38;;
61785;SDS011;47692;53.714;11.372;2023-05-20T12:16:49;2.92;;;1.50;;
61785;SDS011;47692;53.714;11.372;2023-05-20T12:19:14;4.13;;;1.70;;
61785;SDS011;47692;53.714;11.372;2023-05-20T12:21:40;2.88;;;1.33;;
61785;SDS011;47692;53.714;11.372;2023-05-20T12:24:05;3.33;;;1.30;;
61785;SDS011;47692;53.714;11.372;2023-05-20T12:26:32;3.35;;;1.30;;
61785;SDS011;47692;53.714;11.372;2023-05-20T12:28:59;2.80;;;1.33;;
61785;SDS011;47692;53.714;11.372;2023-05-20T12:31:24;4.35;;;1.52;;
61785;SDS011;47692;53.714;11.372;2023-05-20T12:33:49;3.10;;;1.95;;
61785;SDS011;47692;53.714;11.372;2023-05-20T12:36:15;3.83;;;1.65;;
61785;SDS011;47692;53.714;11.372;2023-05-20T12:38:40;4.35;;;1.90;;
61785;SDS011;47692;53.714;11.372;2023-05-20T12:41:06;3.58;;;1.98;;
61785;SDS011;47692;53.714;11.372;2023-05-20T12:43:34;2.90;;;1.73;;
61785;SDS011;47692;53.714;11.372;2023-05-20T12:45:59;6.88;;;2.38;;
61785;SDS011;47692;53.714;11.372;2023-05-20T12:48:25;5.82;;;2.08;;
61785;SDS011;47692;53.714;11.372;2023-05-20T12:50:50;3.20;;;1.52;;
61785;SDS011;47692;53.714;11.372;2023-05-20T12:53:15;5.15;;;1.77;;
61785;SDS011;47692;53.714;11.372;2023-05-20T12:55:41;2.92;;;1.73;;
61785;SDS011;47692;53.714;11.372;2023-05-20T12:58:06;4.10;;;1.92;;
61785;SDS011;47692;53.714;11.372;2023-05-20T13:00:34;2.95;;;1.52;;
61785;SDS011;47692;53.714;11.372;2023-05-20T13:02:59;4.65;;;2.00;;
61785;SDS011;47692;53.714;11.372;2023-05-20T13:05:25;3.63;;;1.83;;
61785;SDS011;47692;53.714;11.372;2023-05-20T13:07:50;4.05;;;1.73;;
61785;SDS011;47692;53.714;11.372;2023-05-20T13:10:16;3.53;;;2.00;;
61785;SDS011;47692;53.714;11.372;2023-05-20T13:12:42;4.28;;;2.35;;
61785;SDS011;47692;53.714;11.372;2023-05-20T13:15:10;3.60;;;1.83;;
61785;SDS011;47692;53.714;11.372;2023-05-20T13:17:37;4.47;;;1.88;;
61785;SDS011;47692;53.714;11.372;2023-05-20T13:20:02;2.65;;;1.67;;
61785;SDS011;47692;53.714;11.372;2023-05-20T13:22:28;4.43;;;2.38;;
61785;SDS011;47692;53.714;11.372;2023-05-20T13:24:53;5.20;;;1.92;;
61785;SDS011;47692;53.714;11.372;2023-05-20T13:27:19;4.20;;;1.90;;
61785;SDS011;47692;53.714;11.372;2023-05-20T13:29:44;4.10;;;2.00;;
61785;SDS011;47692;53.714;11.372;2023-05-20T13:32:10;3.97;;;1.90;;
61785;SDS011;47692;53.714;11.372;2023-05-20T13:34:35;3.83;;;2.20;;
61785;SDS011;47692;53.714;11.372;2023-05-20T13:37:01;3.90;;;1.80;;
61785;SDS011;47692;53.714;11.372;2023-05-20T13:39:27;4.10;;;1.90;;
61785;SDS011;47692;53.714;11.372;2023-05-20T13:41:52;4.35;;;2.13;;
61785;SDS011;47692;53.714;11.372;2023-05-20T13:44:19;7.43;;;1.90;;
61785;SDS011;47692;53.714;11.372;2023-05-20T13:46:44;6.30;;;1.90;;
61785;SDS011;47692;53.714;11.372;2023-05-20T13:49:09;5.60;;;2.10;;
61785;SDS011;47692;53.714;11.372;2023-05-20T13:51:35;3.00;;;1.98;;
61785;SDS011;47692;53.714;11.372;2023-05-20T13:54:00;3.95;;;2.10;;
61785;SDS011;47692;53.714;11.372;2023-05-20T13:56:26;4.30;;;2.05;;
61785;SDS011;47692;53.714;11.372;2023-05-20T13:58:52;2.92;;;2.10;;
61785;SDS011;47692;53.714;11.372;2023-05-20T14:01:17;3.45;;;2.00;;
61785;SDS011;47692;53.714;11.372;2023-05-20T14:03:43;6.03;;;2.25;;
61785;SDS011;47692;53.714;11.372;2023-05-20T14:06:08;7.05;;;2.40;;
61785;SDS011;47692;53.714;11.372;2023-05-20T14:08:34;5.18;;;2.20;;
61785;SDS011;47692;53.714;11.372;2023-05-20T14:10:59;11.10;;;2.00;;
61785;SDS011;47692;53.714;11.372;2023-05-20T14:13:24;3.05;;;1.90;;
61785;SDS011;47692;53.714;11.372;2023-05-20T14:15:50;6.90;;;2.03;;
61785;SDS011;47692;53.714;11.372;2023-05-20T14:18:16;3.28;;;2.10;;
61785;SDS011;47692;53.714;11.372;2023-05-20T14:20:43;5.25;;;2.40;;
61785;SDS011;47692;53.714;11.372;2023-05-20T14:23:09;6.30;;;2.33;;
61785;SDS011;47692;53.714;11.372;2023-05-20T14:25:35;3.90;;;1.77;;
61785;SDS011;47692;53.714;11.372;2023-05-20T14:28:00;4.65;;;2.40;;
61785;SDS011;47692;53.714;11.372;2023-05-20T14:30:25;4.03;;;2.15;;
61785;SDS011;47692;53.714;11.372;2023-05-20T14:32:51;5.78;;;2.75;;
61785;SDS011;47692;53.714;11.372;2023-05-20T14:35:16;6.28;;;2.47;;
61785;SDS011;47692;53.714;11.372;2023-05-20T14:37:42;5.05;;;2.25;;
61785;SDS011;47692;53.714;11.372;2023-05-20T14:40:07;5.35;;;2.40;;